Forside
METAR-TAF:

METAR-TAF

Lufthavne :

Flying Cloud Airport

Minneapolis / Eden Prairie, Minnesota, USA

Breddekreds: 44-49-56N, længdekreds: 093-28-13W, højde: 287 m

Aktuelle vejr

Denne rapport blev lavet for 57 minutter siden, kl. 19:53 UTC
Vind 12 kt fra syd med vindstød på up til 20 kt
Temperatur 21°C
Fugtighed 53%
Tryk 1021 hPa
Sigt: 16.1 km
skyfri

METAR: KFCM 191953Z 18012G20KT 10SM CLR 21/11 A3015 RMK AO2 SLP211 T02110106

Tid: 15:50 (20:50 UTC)


TAF: fraværende

Vejrobservationer og prognoser fra mere end 4000 lufthavne (METAR og TAF).

De gule og røde prikker repræsenterer de meteorologiske stationer.

Flyt musen over at se navnet på stationen.

Så klik over at se vejr observationer og prognoser.

At skifte det kort: Klik på de grønne knapper med et sort kors for at zoome ind; på den grønne knap med en bindestreg for at zoome ud; eller på de grønne pile for tilstødende kort.


METAR-TAF: